sensor_id;sensor_type;location;lat;lon;timestamp;P1;durP1;ratioP1;P2;durP2;ratioP2
10007;SDS011;5043;41.766;26.204;2023-04-03T00:01:02;10.05;;;4.03;;
10007;SDS011;5043;41.766;26.204;2023-04-03T00:03:28;6.88;;;3.30;;
10007;SDS011;5043;41.766;26.204;2023-04-03T00:05:53;6.35;;;3.75;;
10007;SDS011;5043;41.766;26.204;2023-04-03T00:08:19;7.57;;;3.25;;
10007;SDS011;5043;41.766;26.204;2023-04-03T00:10:45;4.82;;;3.45;;
10007;SDS011;5043;41.766;26.204;2023-04-03T00:13:11;5.57;;;3.35;;
10007;SDS011;5043;41.766;26.204;2023-04-03T00:15:37;9.10;;;3.30;;
10007;SDS011;5043;41.766;26.204;2023-04-03T00:18:03;8.00;;;3.72;;
10007;SDS011;5043;41.766;26.204;2023-04-03T00:20:29;10.95;;;4.20;;
10007;SDS011;5043;41.766;26.204;2023-04-03T00:22:54;8.77;;;4.70;;
10007;SDS011;5043;41.766;26.204;2023-04-03T00:25:20;6.82;;;5.05;;
10007;SDS011;5043;41.766;26.204;2023-04-03T00:27:46;6.68;;;4.50;;
10007;SDS011;5043;41.766;26.204;2023-04-03T00:30:15;9.75;;;3.83;;
10007;SDS011;5043;41.766;26.204;2023-04-03T00:32:42;6.03;;;3.63;;
10007;SDS011;5043;41.766;26.204;2023-04-03T00:35:08;5.47;;;3.05;;
10007;SDS011;5043;41.766;26.204;2023-04-03T00:37:34;5.45;;;3.33;;
10007;SDS011;5043;41.766;26.204;2023-04-03T00:40:00;4.13;;;2.85;;
10007;SDS011;5043;41.766;26.204;2023-04-03T00:42:27;5.07;;;3.30;;
10007;SDS011;5043;41.766;26.204;2023-04-03T00:47:18;5.47;;;4.13;;
10007;SDS011;5043;41.766;26.204;2023-04-03T00:49:43;6.45;;;3.22;;
10007;SDS011;5043;41.766;26.204;2023-04-03T00:52:12;3.42;;;2.67;;
10007;SDS011;5043;41.766;26.204;2023-04-03T00:54:41;3.03;;;2.53;;
10007;SDS011;5043;41.766;26.204;2023-04-03T00:57:08;4.85;;;3.10;;
10007;SDS011;5043;41.766;26.204;2023-04-03T00:59:36;4.10;;;2.90;;
10007;SDS011;5043;41.766;26.204;2023-04-03T01:02:10;7.80;;;4.18;;
10007;SDS011;5043;41.766;26.204;2023-04-03T01:04:40;8.85;;;4.32;;
10007;SDS011;5043;41.766;26.204;2023-04-03T01:07:08;4.93;;;3.50;;
10007;SDS011;5043;41.766;26.204;2023-04-03T01:09:38;6.72;;;2.75;;
10007;SDS011;5043;41.766;26.204;2023-04-03T01:14:48;6.80;;;4.03;;
10007;SDS011;5043;41.766;26.204;2023-04-03T01:25:48;7.97;;;3.58;;
10007;SDS011;5043;41.766;26.204;2023-04-03T01:28:31;5.50;;;3.30;;
10007;SDS011;5043;41.766;26.204;2023-04-03T01:34:07;10.60;;;6.47;;
10007;SDS011;5043;41.766;26.204;2023-04-03T01:36:32;14.10;;;6.47;;
10007;SDS011;5043;41.766;26.204;2023-04-03T01:38:58;13.45;;;7.38;;
10007;SDS011;5043;41.766;26.204;2023-04-03T01:41:25;9.50;;;5.32;;
10007;SDS011;5043;41.766;26.204;2023-04-03T01:43:51;11.60;;;3.88;;
10007;SDS011;5043;41.766;26.204;2023-04-03T01:46:17;5.20;;;3.00;;
10007;SDS011;5043;41.766;26.204;2023-04-03T01:48:43;7.47;;;3.45;;
10007;SDS011;5043;41.766;26.204;2023-04-03T01:51:09;7.13;;;3.80;;
10007;SDS011;5043;41.766;26.204;2023-04-03T01:53:35;6.68;;;2.95;;
10007;SDS011;5043;41.766;26.204;2023-04-03T01:56:00;4.05;;;2.80;;
10007;SDS011;5043;41.766;26.204;2023-04-03T01:58:26;4.03;;;2.63;;
10007;SDS011;5043;41.766;26.204;2023-04-03T02:00:51;7.00;;;3.28;;
10007;SDS011;5043;41.766;26.204;2023-04-03T02:03:17;5.00;;;2.75;;
10007;SDS011;5043;41.766;26.204;2023-04-03T02:05:43;6.70;;;3.85;;
10007;SDS011;5043;41.766;26.204;2023-04-03T02:08:08;9.75;;;5.25;;
10007;SDS011;5043;41.766;26.204;2023-04-03T02:10:34;8.18;;;4.47;;
10007;SDS011;5043;41.766;26.204;2023-04-03T02:12:59;5.60;;;3.20;;
10007;SDS011;5043;41.766;26.204;2023-04-03T02:15:25;4.15;;;2.90;;
10007;SDS011;5043;41.766;26.204;2023-04-03T02:17:51;12.45;;;3.97;;
10007;SDS011;5043;41.766;26.204;2023-04-03T02:20:17;5.03;;;3.13;;
10007;SDS011;5043;41.766;26.204;2023-04-03T02:22:42;4.93;;;3.00;;
10007;SDS011;5043;41.766;26.204;2023-04-03T02:25:08;5.97;;;3.50;;
10007;SDS011;5043;41.766;26.204;2023-04-03T02:27:34;6.97;;;3.38;;
10007;SDS011;5043;41.766;26.204;2023-04-03T02:30:00;9.52;;;3.05;;
10007;SDS011;5043;41.766;26.204;2023-04-03T02:32:26;4.13;;;2.38;;
10007;SDS011;5043;41.766;26.204;2023-04-03T02:34:51;7.57;;;3.03;;
10007;SDS011;5043;41.766;26.204;2023-04-03T02:37:17;4.75;;;2.70;;
10007;SDS011;5043;41.766;26.204;2023-04-03T02:39:42;6.50;;;2.67;;
10007;SDS011;5043;41.766;26.204;2023-04-03T02:42:07;7.32;;;2.97;;
10007;SDS011;5043;41.766;26.204;2023-04-03T02:44:33;5.60;;;3.35;;
10007;SDS011;5043;41.766;26.204;2023-04-03T02:46:58;3.80;;;3.00;;
10007;SDS011;5043;41.766;26.204;2023-04-03T02:49:24;5.55;;;3.13;;
10007;SDS011;5043;41.766;26.204;2023-04-03T02:51:49;5.55;;;2.65;;
10007;SDS011;5043;41.766;26.204;2023-04-03T02:54:16;7.72;;;3.25;;
10007;SDS011;5043;41.766;26.204;2023-04-03T02:56:41;8.02;;;3.13;;
10007;SDS011;5043;41.766;26.204;2023-04-03T02:59:07;5.88;;;3.28;;
10007;SDS011;5043;41.766;26.204;2023-04-03T03:01:32;12.23;;;3.67;;
10007;SDS011;5043;41.766;26.204;2023-04-03T03:03:58;7.07;;;3.47;;
10007;SDS011;5043;41.766;26.204;2023-04-03T03:06:25;4.50;;;3.55;;
10007;SDS011;5043;41.766;26.204;2023-04-03T03:08:50;5.25;;;3.20;;
10007;SDS011;5043;41.766;26.204;2023-04-03T03:11:16;6.07;;;3.10;;
10007;SDS011;5043;41.766;26.204;2023-04-03T03:13:41;6.65;;;2.78;;
10007;SDS011;5043;41.766;26.204;2023-04-03T03:16:07;4.15;;;2.50;;
10007;SDS011;5043;41.766;26.204;2023-04-03T03:18:33;6.10;;;2.97;;
10007;SDS011;5043;41.766;26.204;2023-04-03T03:20:59;5.88;;;3.67;;
10007;SDS011;5043;41.766;26.204;2023-04-03T03:23:26;7.55;;;5.10;;
10007;SDS011;5043;41.766;26.204;2023-04-03T03:25:54;8.02;;;5.15;;
10007;SDS011;5043;41.766;26.204;2023-04-03T03:28:24;5.45;;;4.40;;
10007;SDS011;5043;41.766;26.204;2023-04-03T03:30:50;5.90;;;3.77;;
10007;SDS011;5043;41.766;26.204;2023-04-03T03:33:16;9.02;;;5.65;;
10007;SDS011;5043;41.766;26.204;2023-04-03T03:35:42;9.85;;;5.38;;
10007;SDS011;5043;41.766;26.204;2023-04-03T03:38:08;6.95;;;5.53;;
10007;SDS011;5043;41.766;26.204;2023-04-03T03:40:33;7.57;;;5.70;;
10007;SDS011;5043;41.766;26.204;2023-04-03T03:42:59;9.13;;;5.75;;
10007;SDS011;5043;41.766;26.204;2023-04-03T03:45:24;9.18;;;4.80;;
10007;SDS011;5043;41.766;26.204;2023-04-03T03:47:50;7.07;;;5.23;;
10007;SDS011;5043;41.766;26.204;2023-04-03T03:50:16;13.10;;;11.03;;
10007;SDS011;5043;41.766;26.204;2023-04-03T03:52:41;14.38;;;9.95;;
10007;SDS011;5043;41.766;26.204;2023-04-03T03:55:06;10.05;;;7.65;;
10007;SDS011;5043;41.766;26.204;2023-04-03T03:57:32;8.90;;;6.73;;
10007;SDS011;5043;41.766;26.204;2023-04-03T03:59:58;12.18;;;6.78;;
10007;SDS011;5043;41.766;26.204;2023-04-03T04:02:23;7.53;;;5.87;;
10007;SDS011;5043;41.766;26.204;2023-04-03T04:04:49;8.10;;;7.10;;
10007;SDS011;5043;41.766;26.204;2023-04-03T04:07:14;9.50;;;6.78;;
10007;SDS011;5043;41.766;26.204;2023-04-03T04:09:40;9.43;;;7.30;;
10007;SDS011;5043;41.766;26.204;2023-04-03T04:12:05;8.23;;;6.68;;
10007;SDS011;5043;41.766;26.204;2023-04-03T04:14:31;9.18;;;6.97;;
10007;SDS011;5043;41.766;26.204;2023-04-03T04:16:56;10.95;;;7.57;;
10007;SDS011;5043;41.766;26.204;2023-04-03T04:19:21;12.00;;;6.93;;
10007;SDS011;5043;41.766;26.204;2023-04-03T04:21:47;12.25;;;8.57;;
10007;SDS011;5043;41.766;26.204;2023-04-03T04:24:12;12.05;;;6.85;;
10007;SDS011;5043;41.766;26.204;2023-04-03T04:26:38;13.02;;;6.65;;
10007;SDS011;5043;41.766;26.204;2023-04-03T04:29:03;13.80;;;9.68;;
10007;SDS011;5043;41.766;26.204;2023-04-03T04:31:29;11.35;;;7.85;;
10007;SDS011;5043;41.766;26.204;2023-04-03T04:33:54;15.52;;;9.10;;
10007;SDS011;5043;41.766;26.204;2023-04-03T04:36:20;14.52;;;8.70;;
10007;SDS011;5043;41.766;26.204;2023-04-03T04:38:45;16.50;;;7.17;;
10007;SDS011;5043;41.766;26.204;2023-04-03T04:41:11;7.00;;;6.30;;
10007;SDS011;5043;41.766;26.204;2023-04-03T04:43:36;15.25;;;6.95;;
10007;SDS011;5043;41.766;26.204;2023-04-03T04:46:09;8.35;;;6.63;;
10007;SDS011;5043;41.766;26.204;2023-04-03T04:48:36;14.00;;;6.38;;
10007;SDS011;5043;41.766;26.204;2023-04-03T04:51:02;10.35;;;6.38;;
10007;SDS011;5043;41.766;26.204;2023-04-03T04:53:28;9.40;;;7.00;;
10007;SDS011;5043;41.766;26.204;2023-04-03T04:55:54;7.75;;;6.00;;
10007;SDS011;5043;41.766;26.204;2023-04-03T04:58:19;8.75;;;6.28;;
10007;SDS011;5043;41.766;26.204;2023-04-03T05:00:45;9.57;;;6.63;;
10007;SDS011;5043;41.766;26.204;2023-04-03T05:03:11;9.10;;;7.47;;
10007;SDS011;5043;41.766;26.204;2023-04-03T05:05:37;16.48;;;8.10;;
10007;SDS011;5043;41.766;26.204;2023-04-03T05:08:02;12.45;;;7.70;;
10007;SDS011;5043;41.766;26.204;2023-04-03T05:10:28;10.55;;;7.43;;
10007;SDS011;5043;41.766;26.204;2023-04-03T05:12:54;9.95;;;7.80;;
10007;SDS011;5043;41.766;26.204;2023-04-03T05:15:19;7.93;;;6.68;;
10007;SDS011;5043;41.766;26.204;2023-04-03T05:17:45;12.10;;;7.95;;
10007;SDS011;5043;41.766;26.204;2023-04-03T05:20:11;13.63;;;8.88;;
10007;SDS011;5043;41.766;26.204;2023-04-03T05:22:37;12.63;;;8.35;;
10007;SDS011;5043;41.766;26.204;2023-04-03T05:25:03;10.07;;;7.78;;
10007;SDS011;5043;41.766;26.204;2023-04-03T05:27:29;13.68;;;8.68;;
10007;SDS011;5043;41.766;26.204;2023-04-03T05:29:54;14.43;;;8.73;;
10007;SDS011;5043;41.766;26.204;2023-04-03T05:32:20;14.10;;;7.57;;
10007;SDS011;5043;41.766;26.204;2023-04-03T05:34:47;10.07;;;7.93;;
10007;SDS011;5043;41.766;26.204;2023-04-03T05:37:12;9.82;;;7.32;;
10007;SDS011;5043;41.766;26.204;2023-04-03T05:39:38;12.38;;;7.47;;
10007;SDS011;5043;41.766;26.204;2023-04-03T05:42:05;15.90;;;9.50;;
10007;SDS011;5043;41.766;26.204;2023-04-03T05:44:31;17.15;;;10.10;;
10007;SDS011;5043;41.766;26.204;2023-04-03T05:46:57;17.50;;;10.75;;
10007;SDS011;5043;41.766;26.204;2023-04-03T05:49:22;13.68;;;9.43;;
10007;SDS011;5043;41.766;26.204;2023-04-03T05:51:48;13.40;;;8.00;;
10007;SDS011;5043;41.766;26.204;2023-04-03T05:54:34;12.68;;;8.10;;
10007;SDS011;5043;41.766;26.204;2023-04-03T05:56:59;14.38;;;8.18;;
10007;SDS011;5043;41.766;26.204;2023-04-03T05:59:24;14.52;;;10.18;;
10007;SDS011;5043;41.766;26.204;2023-04-03T06:01:50;13.55;;;8.43;;
10007;SDS011;5043;41.766;26.204;2023-04-03T06:04:15;13.20;;;8.15;;
10007;SDS011;5043;41.766;26.204;2023-04-03T06:06:54;22.58;;;14.32;;
10007;SDS011;5043;41.766;26.204;2023-04-03T06:09:22;16.40;;;10.65;;
10007;SDS011;5043;41.766;26.204;2023-04-03T06:11:50;16.13;;;11.07;;
10007;SDS011;5043;41.766;26.204;2023-04-03T06:14:16;20.55;;;11.00;;
10007;SDS011;5043;41.766;26.204;2023-04-03T06:16:42;18.63;;;11.82;;
10007;SDS011;5043;41.766;26.204;2023-04-03T06:19:08;22.02;;;11.98;;
10007;SDS011;5043;41.766;26.204;2023-04-03T06:21:34;17.88;;;11.80;;
10007;SDS011;5043;41.766;26.204;2023-04-03T06:24:01;21.65;;;11.68;;
10007;SDS011;5043;41.766;26.204;2023-04-03T06:26:27;21.58;;;13.63;;
10007;SDS011;5043;41.766;26.204;2023-04-03T06:28:53;15.75;;;10.45;;
10007;SDS011;5043;41.766;26.204;2023-04-03T06:31:19;13.93;;;9.90;;
10007;SDS011;5043;41.766;26.204;2023-04-03T06:33:45;20.77;;;12.43;;
10007;SDS011;5043;41.766;26.204;2023-04-03T06:36:10;17.85;;;11.68;;
10007;SDS011;5043;41.766;26.204;2023-04-03T06:38:37;17.85;;;11.52;;
10007;SDS011;5043;41.766;26.204;2023-04-03T06:41:03;18.88;;;11.45;;
10007;SDS011;5043;41.766;26.204;2023-04-03T06:43:28;18.33;;;10.60;;
10007;SDS011;5043;41.766;26.204;2023-04-03T06:45:56;13.75;;;9.50;;
10007;SDS011;5043;41.766;26.204;2023-04-03T06:48:21;16.10;;;8.60;;
10007;SDS011;5043;41.766;26.204;2023-04-03T06:50:47;21.02;;;11.48;;
10007;SDS011;5043;41.766;26.204;2023-04-03T06:53:13;23.92;;;15.02;;
10007;SDS011;5043;41.766;26.204;2023-04-03T06:55:39;24.85;;;14.43;;
10007;SDS011;5043;41.766;26.204;2023-04-03T06:58:04;23.60;;;13.75;;
10007;SDS011;5043;41.766;26.204;2023-04-03T07:00:30;12.68;;;9.35;;
10007;SDS011;5043;41.766;26.204;2023-04-03T07:02:56;16.83;;;10.35;;
10007;SDS011;5043;41.766;26.204;2023-04-03T07:05:22;15.48;;;10.40;;
10007;SDS011;5043;41.766;26.204;2023-04-03T07:07:48;25.25;;;11.27;;
10007;SDS011;5043;41.766;26.204;2023-04-03T07:10:15;17.10;;;10.00;;
10007;SDS011;5043;41.766;26.204;2023-04-03T07:12:41;18.60;;;9.38;;
10007;SDS011;5043;41.766;26.204;2023-04-03T07:15:06;13.85;;;8.35;;
10007;SDS011;5043;41.766;26.204;2023-04-03T07:17:33;11.73;;;7.50;;
10007;SDS011;5043;41.766;26.204;2023-04-03T07:19:58;11.23;;;8.05;;
10007;SDS011;5043;41.766;26.204;2023-04-03T07:22:24;22.40;;;10.18;;
10007;SDS011;5043;41.766;26.204;2023-04-03T07:24:49;19.60;;;7.63;;
10007;SDS011;5043;41.766;26.204;2023-04-03T07:27:15;15.82;;;7.32;;
10007;SDS011;5043;41.766;26.204;2023-04-03T07:29:42;15.77;;;7.90;;
10007;SDS011;5043;41.766;26.204;2023-04-03T07:32:09;14.50;;;6.95;;
10007;SDS011;5043;41.766;26.204;2023-04-03T07:34:35;15.48;;;8.80;;
10007;SDS011;5043;41.766;26.204;2023-04-03T07:37:01;13.73;;;8.00;;
10007;SDS011;5043;41.766;26.204;2023-04-03T07:39:27;16.73;;;9.80;;
10007;SDS011;5043;41.766;26.204;2023-04-03T07:41:53;20.08;;;10.02;;
10007;SDS011;5043;41.766;26.204;2023-04-03T07:44:21;23.33;;;11.18;;
10007;SDS011;5043;41.766;26.204;2023-04-03T07:46:46;22.70;;;9.68;;
10007;SDS011;5043;41.766;26.204;2023-04-03T07:49:13;20.42;;;11.80;;
10007;SDS011;5043;41.766;26.204;2023-04-03T07:51:39;26.63;;;12.32;;
10007;SDS011;5043;41.766;26.204;2023-04-03T07:54:04;24.23;;;11.57;;
10007;SDS011;5043;41.766;26.204;2023-04-03T07:56:30;26.80;;;15.10;;
10007;SDS011;5043;41.766;26.204;2023-04-03T07:58:57;24.98;;;13.27;;
10007;SDS011;5043;41.766;26.204;2023-04-03T08:01:22;24.50;;;13.23;;
10007;SDS011;5043;41.766;26.204;2023-04-03T08:03:47;23.73;;;13.13;;
10007;SDS011;5043;41.766;26.204;2023-04-03T08:06:13;24.00;;;12.93;;
10007;SDS011;5043;41.766;26.204;2023-04-03T08:08:40;25.50;;;13.82;;
10007;SDS011;5043;41.766;26.204;2023-04-03T08:11:06;26.40;;;14.38;;
10007;SDS011;5043;41.766;26.204;2023-04-03T08:13:33;26.17;;;12.77;;
10007;SDS011;5043;41.766;26.204;2023-04-03T08:16:07;25.33;;;14.00;;
10007;SDS011;5043;41.766;26.204;2023-04-03T08:18:36;19.38;;;11.60;;
10007;SDS011;5043;41.766;26.204;2023-04-03T08:21:05;21.98;;;13.13;;
10007;SDS011;5043;41.766;26.204;2023-04-03T08:23:31;23.58;;;14.32;;
10007;SDS011;5043;41.766;26.204;2023-04-03T08:25:56;29.58;;;16.30;;
10007;SDS011;5043;41.766;26.204;2023-04-03T08:28:22;24.33;;;16.40;;
10007;SDS011;5043;41.766;26.204;2023-04-03T08:30:47;26.83;;;16.13;;
10007;SDS011;5043;41.766;26.204;2023-04-03T08:33:13;24.95;;;15.88;;
10007;SDS011;5043;41.766;26.204;2023-04-03T08:35:39;22.00;;;14.52;;
10007;SDS011;5043;41.766;26.204;2023-04-03T08:38:06;22.98;;;14.68;;
10007;SDS011;5043;41.766;26.204;2023-04-03T08:40:32;24.25;;;15.35;;
10007;SDS011;5043;41.766;26.204;2023-04-03T08:43:08;23.25;;;14.95;;
10007;SDS011;5043;41.766;26.204;2023-04-03T08:45:56;30.75;;;15.73;;
10007;SDS011;5043;41.766;26.204;2023-04-03T08:48:33;26.00;;;14.80;;
10007;SDS011;5043;41.766;26.204;2023-04-03T08:51:04;24.42;;;15.90;;
10007;SDS011;5043;41.766;26.204;2023-04-03T08:53:40;30.65;;;16.15;;
10007;SDS011;5043;41.766;26.204;2023-04-03T08:56:28;26.83;;;15.88;;
10007;SDS011;5043;41.766;26.204;2023-04-03T08:58:56;25.02;;;16.58;;
10007;SDS011;5043;41.766;26.204;2023-04-03T09:01:35;31.00;;;17.48;;
10007;SDS011;5043;41.766;26.204;2023-04-03T09:04:05;25.15;;;16.73;;
10007;SDS011;5043;41.766;26.204;2023-04-03T09:06:36;28.00;;;17.42;;
10007;SDS011;5043;41.766;26.204;2023-04-03T09:09:15;24.77;;;16.35;;
10007;SDS011;5043;41.766;26.204;2023-04-03T09:22:24;30.35;;;18.92;;
10007;SDS011;5043;41.766;26.204;2023-04-03T09:25:13;28.75;;;17.73;;
10007;SDS011;5043;41.766;26.204;2023-04-03T09:28:00;31.63;;;18.23;;
10007;SDS011;5043;41.766;26.204;2023-04-03T09:30:27;30.42;;;17.85;;
10007;SDS011;5043;41.766;26.204;2023-04-03T09:32:56;29.20;;;18.92;;
10007;SDS011;5043;41.766;26.204;2023-04-03T09:35:23;36.22;;;20.73;;
10007;SDS011;5043;41.766;26.204;2023-04-03T09:37:58;41.15;;;24.90;;
10007;SDS011;5043;41.766;26.204;2023-04-03T09:40:35;34.75;;;21.40;;
10007;SDS011;5043;41.766;26.204;2023-04-03T09:43:20;37.53;;;22.20;;
10007;SDS011;5043;41.766;26.204;2023-04-03T09:45:53;36.70;;;22.13;;
10007;SDS011;5043;41.766;26.204;2023-04-03T09:48:21;35.72;;;22.45;;
10007;SDS011;5043;41.766;26.204;2023-04-03T09:50:53;35.95;;;23.00;;
10007;SDS011;5043;41.766;26.204;2023-04-03T09:53:40;44.08;;;22.92;;
10007;SDS011;5043;41.766;26.204;2023-04-03T09:58:51;35.33;;;21.77;;
10007;SDS011;5043;41.766;26.204;2023-04-03T10:04:24;41.80;;;23.38;;
10007;SDS011;5043;41.766;26.204;2023-04-03T10:06:53;36.88;;;23.20;;
10007;SDS011;5043;41.766;26.204;2023-04-03T10:12:10;46.33;;;22.67;;
10007;SDS011;5043;41.766;26.204;2023-04-03T10:14:38;39.13;;;22.27;;
10007;SDS011;5043;41.766;26.204;2023-04-03T10:19:55;37.97;;;22.10;;
10007;SDS011;5043;41.766;26.204;2023-04-03T10:22:37;34.42;;;21.95;;
10007;SDS011;5043;41.766;26.204;2023-04-03T10:30:47;42.58;;;23.90;;
10007;SDS011;5043;41.766;26.204;2023-04-03T10:33:33;39.17;;;24.17;;
10007;SDS011;5043;41.766;26.204;2023-04-03T10:38:37;43.63;;;25.20;;
10007;SDS011;5043;41.766;26.204;2023-04-03T10:41:25;39.03;;;23.95;;
10007;SDS011;5043;41.766;26.204;2023-04-03T10:46:43;42.58;;;26.50;;
10007;SDS011;5043;41.766;26.204;2023-04-03T10:51:45;44.33;;;22.83;;
10007;SDS011;5043;41.766;26.204;2023-04-03T10:54:36;36.85;;;23.13;;
10007;SDS011;5043;41.766;26.204;2023-04-03T10:57:04;35.20;;;22.02;;
10007;SDS011;5043;41.766;26.204;2023-04-03T10:59:53;30.45;;;20.65;;
10007;SDS011;5043;41.766;26.204;2023-04-03T11:02:31;30.00;;;20.02;;
10007;SDS011;5043;41.766;26.204;2023-04-03T11:05:48;29.50;;;20.15;;
10007;SDS011;5043;41.766;26.204;2023-04-03T11:07:54;30.35;;;18.02;;
10007;SDS011;5043;41.766;26.204;2023-04-03T11:13:10;16.85;;;10.98;;
10007;SDS011;5043;41.766;26.204;2023-04-03T11:15:38;27.80;;;16.90;;
10007;SDS011;5043;41.766;26.204;2023-04-03T11:18:06;21.75;;;11.80;;
10007;SDS011;5043;41.766;26.204;2023-04-03T11:20:38;14.95;;;10.60;;
10007;SDS011;5043;41.766;26.204;2023-04-03T11:25:51;20.75;;;8.98;;
10007;SDS011;5043;41.766;26.204;2023-04-03T11:28:19;39.78;;;28.50;;
10007;SDS011;5043;41.766;26.204;2023-04-03T11:36:24;12.68;;;7.75;;
10007;SDS011;5043;41.766;26.204;2023-04-03T11:38:52;10.13;;;7.07;;
10007;SDS011;5043;41.766;26.204;2023-04-03T11:41:30;13.38;;;7.65;;
10007;SDS011;5043;41.766;26.204;2023-04-03T11:46:48;10.10;;;7.55;;
10007;SDS011;5043;41.766;26.204;2023-04-03T12:05:49;11.73;;;7.70;;
10007;SDS011;5043;41.766;26.204;2023-04-03T12:08:16;7.28;;;5.50;;
10007;SDS011;5043;41.766;26.204;2023-04-03T12:16:30;11.68;;;6.93;;
10007;SDS011;5043;41.766;26.204;2023-04-03T12:19:41;13.38;;;6.80;;
10007;SDS011;5043;41.766;26.204;2023-04-03T12:22:12;19.10;;;10.65;;
10007;SDS011;5043;41.766;26.204;2023-04-03T12:24:41;15.65;;;7.30;;
10007;SDS011;5043;41.766;26.204;2023-04-03T12:46:58;8.88;;;5.03;;
10007;SDS011;5043;41.766;26.204;2023-04-03T12:54:45;8.90;;;4.65;;
10007;SDS011;5043;41.766;26.204;2023-04-03T12:59:41;11.77;;;7.22;;
10007;SDS011;5043;41.766;26.204;2023-04-03T13:02:43;11.93;;;6.45;;
10007;SDS011;5043;41.766;26.204;2023-04-03T13:05:08;18.75;;;10.68;;
10007;SDS011;5043;41.766;26.204;2023-04-03T13:07:39;57.63;;;31.98;;
10007;SDS011;5043;41.766;26.204;2023-04-03T13:12:56;22.98;;;13.15;;
10007;SDS011;5043;41.766;26.204;2023-04-03T13:15:24;16.20;;;8.50;;
10007;SDS011;5043;41.766;26.204;2023-04-03T13:17:52;7.82;;;5.20;;
10007;SDS011;5043;41.766;26.204;2023-04-03T13:22:53;9.00;;;4.45;;
10007;SDS011;5043;41.766;26.204;2023-04-03T13:25:31;8.52;;;4.65;;
10007;SDS011;5043;41.766;26.204;2023-04-03T13:28:01;14.35;;;3.83;;
10007;SDS011;5043;41.766;26.204;2023-04-03T13:30:32;8.57;;;4.20;;
10007;SDS011;5043;41.766;26.204;2023-04-03T13:33:01;6.82;;;4.05;;
10007;SDS011;5043;41.766;26.204;2023-04-03T13:35:39;11.73;;;5.05;;
10007;SDS011;5043;41.766;26.204;2023-04-03T13:40:57;10.55;;;6.20;;
10007;SDS011;5043;41.766;26.204;2023-04-03T13:43:33;9.88;;;4.43;;
10007;SDS011;5043;41.766;26.204;2023-04-03T13:48:37;9.15;;;3.95;;
10007;SDS011;5043;41.766;26.204;2023-04-03T13:51:04;7.93;;;4.88;;
10007;SDS011;5043;41.766;26.204;2023-04-03T13:54:00;9.20;;;6.55;;
10007;SDS011;5043;41.766;26.204;2023-04-03T13:56:38;5.82;;;4.10;;
10007;SDS011;5043;41.766;26.204;2023-04-03T14:04:26;8.32;;;4.53;;
10007;SDS011;5043;41.766;26.204;2023-04-03T14:06:57;9.10;;;5.55;;
10007;SDS011;5043;41.766;26.204;2023-04-03T14:09:24;10.95;;;4.32;;
10007;SDS011;5043;41.766;26.204;2023-04-03T14:11:53;11.88;;;5.47;;
10007;SDS011;5043;41.766;26.204;2023-04-03T14:14:24;8.60;;;3.90;;
10007;SDS011;5043;41.766;26.204;2023-04-03T14:16:53;7.35;;;3.58;;
10007;SDS011;5043;41.766;26.204;2023-04-03T14:19:25;8.43;;;4.25;;
10007;SDS011;5043;41.766;26.204;2023-04-03T14:21:52;8.13;;;3.72;;
10007;SDS011;5043;41.766;26.204;2023-04-03T14:24:19;6.63;;;3.47;;
10007;SDS011;5043;41.766;26.204;2023-04-03T14:26:47;14.95;;;4.15;;
10007;SDS011;5043;41.766;26.204;2023-04-03T14:29:14;9.82;;;4.60;;
10007;SDS011;5043;41.766;26.204;2023-04-03T14:31:41;6.80;;;3.47;;
10007;SDS011;5043;41.766;26.204;2023-04-03T14:34:12;5.78;;;3.78;;
10007;SDS011;5043;41.766;26.204;2023-04-03T14:36:41;8.40;;;4.57;;
10007;SDS011;5043;41.766;26.204;2023-04-03T14:39:18;5.18;;;4.00;;
10007;SDS011;5043;41.766;26.204;2023-04-03T14:41:44;8.70;;;4.47;;
10007;SDS011;5043;41.766;26.204;2023-04-03T14:44:11;9.05;;;4.85;;
10007;SDS011;5043;41.766;26.204;2023-04-03T14:46:39;15.30;;;6.97;;
10007;SDS011;5043;41.766;26.204;2023-04-03T14:49:14;11.48;;;7.22;;
10007;SDS011;5043;41.766;26.204;2023-04-03T14:51:51;12.68;;;7.05;;
10007;SDS011;5043;41.766;26.204;2023-04-03T14:54:19;11.65;;;6.35;;
10007;SDS011;5043;41.766;26.204;2023-04-03T14:56:52;9.90;;;5.53;;
10007;SDS011;5043;41.766;26.204;2023-04-03T14:59:20;8.27;;;5.47;;
10007;SDS011;5043;41.766;26.204;2023-04-03T15:01:46;10.88;;;7.05;;
10007;SDS011;5043;41.766;26.204;2023-04-03T15:04:13;7.97;;;4.50;;
10007;SDS011;5043;41.766;26.204;2023-04-03T15:06:40;7.30;;;4.00;;
10007;SDS011;5043;41.766;26.204;2023-04-03T15:09:25;14.88;;;10.45;;
10007;SDS011;5043;41.766;26.204;2023-04-03T15:11:53;13.70;;;6.05;;
10007;SDS011;5043;41.766;26.204;2023-04-03T15:14:19;10.32;;;5.45;;
10007;SDS011;5043;41.766;26.204;2023-04-03T15:16:45;11.95;;;6.30;;
10007;SDS011;5043;41.766;26.204;2023-04-03T15:19:11;10.45;;;6.35;;
10007;SDS011;5043;41.766;26.204;2023-04-03T15:21:37;12.98;;;8.27;;
10007;SDS011;5043;41.766;26.204;2023-04-03T15:24:04;13.00;;;6.72;;
10007;SDS011;5043;41.766;26.204;2023-04-03T15:26:31;9.88;;;5.50;;
10007;SDS011;5043;41.766;26.204;2023-04-03T15:28:57;7.80;;;5.20;;
10007;SDS011;5043;41.766;26.204;2023-04-03T15:31:23;10.13;;;4.53;;
10007;SDS011;5043;41.766;26.204;2023-04-03T15:33:48;10.57;;;5.50;;
10007;SDS011;5043;41.766;26.204;2023-04-03T15:36:14;10.23;;;5.35;;
10007;SDS011;5043;41.766;26.204;2023-04-03T15:38:40;11.73;;;7.28;;
10007;SDS011;5043;41.766;26.204;2023-04-03T15:41:06;12.88;;;5.65;;
10007;SDS011;5043;41.766;26.204;2023-04-03T15:43:32;10.10;;;5.22;;
10007;SDS011;5043;41.766;26.204;2023-04-03T15:46:01;10.40;;;5.20;;
10007;SDS011;5043;41.766;26.204;2023-04-03T15:48:27;14.02;;;8.32;;
10007;SDS011;5043;41.766;26.204;2023-04-03T15:50:54;12.65;;;8.20;;
10007;SDS011;5043;41.766;26.204;2023-04-03T15:53:20;10.00;;;4.53;;
10007;SDS011;5043;41.766;26.204;2023-04-03T15:55:45;14.50;;;6.63;;
10007;SDS011;5043;41.766;26.204;2023-04-03T15:58:14;23.52;;;12.27;;
10007;SDS011;5043;41.766;26.204;2023-04-03T16:00:45;14.07;;;8.05;;
10007;SDS011;5043;41.766;26.204;2023-04-03T16:03:16;14.88;;;6.50;;
10007;SDS011;5043;41.766;26.204;2023-04-03T16:05:45;14.55;;;7.97;;
10007;SDS011;5043;41.766;26.204;2023-04-03T16:08:11;6.55;;;3.63;;
10007;SDS011;5043;41.766;26.204;2023-04-03T16:10:38;10.98;;;3.40;;
10007;SDS011;5043;41.766;26.204;2023-04-03T16:13:05;7.80;;;3.08;;
10007;SDS011;5043;41.766;26.204;2023-04-03T16:15:31;5.53;;;3.20;;
10007;SDS011;5043;41.766;26.204;2023-04-03T16:17:59;5.30;;;3.40;;
10007;SDS011;5043;41.766;26.204;2023-04-03T16:20:25;9.57;;;4.88;;
10007;SDS011;5043;41.766;26.204;2023-04-03T16:22:52;7.35;;;4.50;;
10007;SDS011;5043;41.766;26.204;2023-04-03T16:25:24;6.68;;;4.00;;
10007;SDS011;5043;41.766;26.204;2023-04-03T16:27:51;8.35;;;4.20;;
10007;SDS011;5043;41.766;26.204;2023-04-03T16:30:17;20.45;;;11.75;;
10007;SDS011;5043;41.766;26.204;2023-04-03T16:32:43;18.70;;;8.52;;
10007;SDS011;5043;41.766;26.204;2023-04-03T16:35:09;11.68;;;6.53;;
10007;SDS011;5043;41.766;26.204;2023-04-03T16:37:36;17.25;;;9.07;;
10007;SDS011;5043;41.766;26.204;2023-04-03T16:40:05;16.90;;;9.20;;
10007;SDS011;5043;41.766;26.204;2023-04-03T16:42:32;42.97;;;24.48;;
10007;SDS011;5043;41.766;26.204;2023-04-03T16:44:58;30.08;;;18.75;;
10007;SDS011;5043;41.766;26.204;2023-04-03T16:47:26;12.20;;;6.57;;
10007;SDS011;5043;41.766;26.204;2023-04-03T16:49:51;18.60;;;9.38;;
10007;SDS011;5043;41.766;26.204;2023-04-03T16:52:16;21.35;;;11.93;;
10007;SDS011;5043;41.766;26.204;2023-04-03T16:54:42;13.55;;;7.05;;